createdAt,value
2019-05-02T00:01:21.421Z,13.20
2019-05-02T00:03:50.498Z,13.20
2019-05-02T00:06:19.581Z,13.20
2019-05-02T00:08:48.703Z,13.20
2019-05-02T00:11:18.602Z,13.20
2019-05-02T00:13:48.182Z,13.20
2019-05-02T00:16:17.314Z,13.20
2019-05-02T00:18:46.308Z,13.20
2019-05-02T00:21:15.783Z,13.20
2019-05-02T00:23:44.778Z,13.20
2019-05-02T00:26:13.697Z,13.20
2019-05-02T00:28:42.996Z,13.20
2019-05-02T00:31:13.266Z,13.10
2019-05-02T00:33:42.333Z,13.10
2019-05-02T00:36:11.349Z,13.10
2019-05-02T00:38:40.274Z,13.10
2019-05-02T00:41:09.254Z,13.10
2019-05-02T00:43:38.147Z,13.10
2019-05-02T00:46:07.117Z,13.10
2019-05-02T00:48:43.727Z,13.10
2019-05-02T00:51:12.757Z,13.10
2019-05-02T00:53:44.464Z,13.10
2019-05-02T00:56:12.347Z,13.10
2019-05-02T00:58:41.292Z,13.10
2019-05-02T01:01:38.594Z,13.10
2019-05-02T01:04:23.430Z,13.10
2019-05-02T01:06:50.819Z,13.10
2019-05-02T01:09:20.242Z,13.10
2019-05-02T01:11:50.255Z,13.10
2019-05-02T01:14:19.217Z,13.10
2019-05-02T01:16:49.385Z,13.10
2019-05-02T01:19:18.801Z,13.20
2019-05-02T01:21:47.827Z,13.20
2019-05-02T01:24:16.750Z,13.20
2019-05-02T01:26:59.805Z,13.20
2019-05-02T01:29:50.325Z,13.20
2019-05-02T01:32:36.802Z,13.20
2019-05-02T01:35:36.948Z,13.20
2019-05-02T01:38:21.043Z,13.20
2019-05-02T01:40:53.343Z,13.20
2019-05-02T01:43:25.756Z,13.20
2019-05-02T01:45:54.798Z,13.20
2019-05-02T01:48:24.320Z,13.20
2019-05-02T01:50:53.594Z,13.20
2019-05-02T01:53:22.625Z,13.20
2019-05-02T01:55:51.978Z,13.10
2019-05-02T01:58:22.865Z,13.10
2019-05-02T02:00:52.293Z,13.00
2019-05-02T02:03:21.289Z,13.10
2019-05-02T02:05:50.290Z,13.10
2019-05-02T02:08:19.300Z,13.10
2019-05-02T02:10:50.440Z,13.10
2019-05-02T02:13:19.040Z,13.10
2019-05-02T02:15:48.116Z,13.10
2019-05-02T02:18:22.288Z,13.10
2019-05-02T02:21:14.202Z,13.00
2019-05-02T02:23:55.536Z,13.10
2019-05-02T02:26:24.996Z,13.00
2019-05-02T02:28:53.938Z,13.00
2019-05-02T02:31:23.112Z,13.00
2019-05-02T02:33:52.091Z,12.90
2019-05-02T02:36:31.539Z,13.00
2019-05-02T02:38:51.660Z,12.90
2019-05-02T02:41:20.636Z,12.90
2019-05-02T02:44:07.536Z,12.90
2019-05-02T02:46:38.607Z,12.90
2019-05-02T02:49:14.235Z,13.00
2019-05-02T02:51:38.625Z,13.00
2019-05-02T02:54:07.575Z,13.00
2019-05-02T02:56:40.442Z,13.00
2019-05-02T02:59:07.188Z,13.00
2019-05-02T03:01:36.220Z,13.00
2019-05-02T03:04:09.284Z,13.00
2019-05-02T03:06:38.309Z,13.10
2019-05-02T03:09:06.992Z,13.10
2019-05-02T03:12:01.951Z,13.10
2019-05-02T03:14:33.243Z,13.10
2019-05-02T03:17:02.244Z,13.00
2019-05-02T03:19:31.260Z,13.00
2019-05-02T03:22:01.379Z,13.00
2019-05-02T03:24:36.629Z,13.00
2019-05-02T03:27:01.470Z,13.00
2019-05-02T03:29:41.377Z,13.00
2019-05-02T03:32:14.221Z,13.00
2019-05-02T03:34:46.582Z,13.00
2019-05-02T03:37:10.739Z,13.00
2019-05-02T03:39:33.715Z,13.00
2019-05-02T03:42:04.866Z,13.00
2019-05-02T03:44:33.765Z,12.90
2019-05-02T03:47:04.843Z,12.90
2019-05-02T03:49:33.420Z,12.90
2019-05-02T03:52:05.706Z,12.90
2019-05-02T03:54:33.645Z,12.90
2019-05-02T03:57:02.607Z,12.90
2019-05-02T03:59:39.077Z,12.90
2019-05-02T04:02:02.278Z,12.90
2019-05-02T04:04:31.249Z,12.90
2019-05-02T04:07:01.286Z,12.90
2019-05-02T04:09:41.985Z,13.00
2019-05-02T04:12:11.540Z,13.00
2019-05-02T04:14:39.273Z,13.00
2019-05-02T04:17:10.203Z,13.00
2019-05-02T04:19:39.702Z,13.00
2019-05-02T04:22:12.168Z,13.00
2019-05-02T04:24:59.651Z,13.10
2019-05-02T04:27:34.027Z,13.10
2019-05-02T04:30:09.738Z,13.10
2019-05-02T04:32:30.879Z,13.20
2019-05-02T04:34:59.934Z,13.20
2019-05-02T04:37:34.473Z,13.20
2019-05-02T04:40:03.162Z,13.30
2019-05-02T04:42:30.419Z,13.30
2019-05-02T04:58:08.311Z,13.40
2019-05-02T05:00:39.203Z,13.40
2019-05-02T05:03:15.748Z,13.50
2019-05-02T05:05:40.376Z,13.50
2019-05-02T05:08:09.532Z,13.50
2019-05-02T05:10:41.372Z,13.50
2019-05-02T05:13:12.122Z,13.50
2019-05-02T05:15:48.474Z,13.50
2019-05-02T05:18:14.386Z,13.50
2019-05-02T05:20:45.917Z,13.50
2019-05-02T05:23:15.743Z,13.60
2019-05-02T05:25:55.773Z,13.60
2019-05-02T05:28:24.687Z,13.70
2019-05-02T05:30:53.802Z,13.70
2019-05-02T05:33:22.908Z,13.70
2019-05-02T05:35:52.715Z,13.70
2019-05-02T05:38:23.069Z,13.80
2019-05-02T05:40:52.603Z,13.80
2019-05-02T05:43:21.585Z,13.80
2019-05-02T05:45:56.044Z,13.90
2019-05-02T05:48:21.325Z,13.90
2019-05-02T05:50:50.164Z,14.00
2019-05-02T05:53:21.369Z,14.10
2019-05-02T05:55:53.549Z,14.10
2019-05-02T05:58:20.185Z,14.20
2019-05-02T06:00:53.671Z,14.30
2019-05-02T06:03:19.918Z,14.40
2019-05-02T06:05:48.934Z,14.50
2019-05-02T06:08:18.578Z,14.60
2019-05-02T06:10:48.735Z,14.70
2019-05-02T06:13:17.646Z,14.70
2019-05-02T06:15:46.571Z,14.80
2019-05-02T06:18:15.555Z,15.00
2019-05-02T06:20:44.493Z,15.20
2019-05-02T06:23:13.422Z,15.50
2019-05-02T06:25:42.927Z,15.60
2019-05-02T06:28:12.335Z,15.70
2019-05-02T06:30:41.250Z,15.70
2019-05-02T06:33:10.174Z,15.70
2019-05-02T06:35:39.078Z,15.80
2019-05-02T06:38:08.030Z,15.90
2019-05-02T06:40:39.328Z,16.00
2019-05-02T06:43:09.689Z,16.20
2019-05-02T06:45:39.684Z,16.30
2019-05-02T06:48:17.135Z,16.40
2019-05-02T06:50:40.594Z,16.50
2019-05-02T06:53:11.197Z,16.60
2019-05-02T06:55:40.309Z,16.60
2019-05-02T06:58:09.152Z,16.70
2019-05-02T07:00:56.095Z,16.70
2019-05-02T07:03:10.316Z,16.60
2019-05-02T07:05:39.363Z,16.60
2019-05-02T07:08:11.664Z,16.60
2019-05-02T07:10:44.904Z,16.60
2019-05-02T07:13:11.031Z,16.60
2019-05-02T07:16:02.399Z,16.50
2019-05-02T07:18:34.757Z,16.50
2019-05-02T07:21:05.154Z,16.40
2019-05-02T07:23:34.232Z,16.40
2019-05-02T07:26:03.077Z,16.40
2019-05-02T07:28:31.949Z,16.30
2019-05-02T07:31:01.243Z,16.30
2019-05-02T07:33:32.366Z,16.20
2019-05-02T07:36:01.466Z,16.30
2019-05-02T07:38:30.635Z,16.20
2019-05-02T07:41:00.041Z,16.30
2019-05-02T07:43:28.854Z,16.20
2019-05-02T07:45:57.708Z,16.30
2019-05-02T07:48:26.534Z,16.20
2019-05-02T07:50:56.079Z,16.20
2019-05-02T07:53:25.378Z,16.20
2019-05-02T07:55:54.369Z,16.20
2019-05-02T07:58:23.290Z,16.20
2019-05-02T08:00:52.297Z,16.20
2019-05-02T08:03:21.197Z,16.10
2019-05-02T08:05:54.470Z,16.10
2019-05-02T08:08:25.081Z,16.00
2019-05-02T08:10:53.808Z,16.00
2019-05-02T08:13:22.159Z,15.90
2019-05-02T08:15:52.380Z,15.90
2019-05-02T08:18:25.051Z,15.90
2019-05-02T08:20:56.069Z,15.90
2019-05-02T08:23:25.850Z,15.90
2019-05-02T08:25:53.750Z,15.90
2019-05-02T08:28:31.026Z,15.90
2019-05-02T08:30:59.875Z,15.90
2019-05-02T08:33:29.402Z,15.90
2019-05-02T08:35:59.394Z,15.90
2019-05-02T08:38:28.241Z,15.90
2019-05-02T08:40:57.149Z,15.80
2019-05-02T08:43:25.970Z,15.80
2019-05-02T08:45:54.900Z,15.90
2019-05-02T08:48:23.926Z,15.90
2019-05-02T08:50:52.905Z,15.90
2019-05-02T08:53:22.286Z,15.90
2019-05-02T08:55:51.682Z,15.90
2019-05-02T08:58:20.545Z,16.00
2019-05-02T09:00:49.470Z,16.00
2019-05-02T09:03:18.478Z,15.90
2019-05-02T09:05:47.682Z,15.90
2019-05-02T09:08:16.868Z,15.90
2019-05-02T09:10:46.024Z,16.00
2019-05-02T09:13:17.975Z,16.00
2019-05-02T09:15:51.058Z,16.00
2019-05-02T09:18:16.128Z,16.00
2019-05-02T09:20:46.921Z,15.90
2019-05-02T09:23:15.570Z,16.00
2019-05-02T09:25:44.638Z,16.00
2019-05-02T09:28:17.132Z,16.00
2019-05-02T09:30:46.725Z,16.00
2019-05-02T09:33:14.869Z,16.00
2019-05-02T09:35:43.788Z,16.00
2019-05-02T09:38:14.693Z,16.00
2019-05-02T09:40:47.248Z,16.00
2019-05-02T09:43:13.860Z,16.00
2019-05-02T09:45:43.950Z,16.00
2019-05-02T09:48:17.172Z,16.00
2019-05-02T09:50:43.978Z,16.10
2019-05-02T09:53:20.353Z,16.00
2019-05-02T09:55:50.208Z,16.10
2019-05-02T09:58:19.629Z,16.10
2019-05-02T10:01:01.830Z,16.20
2019-05-02T10:03:31.894Z,16.10
2019-05-02T10:06:03.028Z,16.10
2019-05-02T10:08:32.184Z,16.10
2019-05-02T10:11:02.832Z,16.10
2019-05-02T10:13:33.121Z,16.10
2019-05-02T10:16:02.241Z,16.10
2019-05-02T10:18:32.941Z,16.10
2019-05-02T10:21:03.000Z,16.10
2019-05-02T10:23:32.490Z,16.10
2019-05-02T10:26:02.821Z,16.20
2019-05-02T10:28:32.093Z,16.20
2019-05-02T10:31:02.331Z,16.10
2019-05-02T10:33:33.705Z,16.10
2019-05-02T10:36:02.693Z,16.20
2019-05-02T10:38:32.659Z,16.10
2019-05-02T10:41:04.785Z,16.10
2019-05-02T10:43:32.989Z,16.10
2019-05-02T10:46:07.958Z,16.10
2019-05-02T10:48:41.922Z,16.10
2019-05-02T10:51:28.489Z,16.00
2019-05-02T10:53:57.346Z,16.00
2019-05-02T10:56:26.249Z,16.00
2019-05-02T10:58:55.150Z,16.10
2019-05-02T11:01:25.790Z,16.10
2019-05-02T11:03:56.769Z,16.20
2019-05-02T11:06:25.693Z,16.30
2019-05-02T11:08:54.698Z,16.20
2019-05-02T11:11:23.806Z,16.20
2019-05-02T11:14:11.978Z,16.30
2019-05-02T11:16:58.943Z,16.30
2019-05-02T11:19:45.613Z,16.30
2019-05-02T11:22:14.565Z,16.20
2019-05-02T11:24:43.513Z,16.20
2019-05-02T11:27:12.871Z,16.30
2019-05-02T11:29:42.624Z,16.20
2019-05-02T11:32:12.773Z,16.20
2019-05-02T11:34:42.106Z,16.20
2019-05-02T11:37:12.154Z,16.20
2019-05-02T11:39:46.886Z,16.20
2019-05-02T11:42:12.557Z,16.20
2019-05-02T11:44:41.864Z,16.20
2019-05-02T11:47:12.599Z,16.20
2019-05-02T11:49:42.524Z,16.10
2019-05-02T11:52:12.440Z,16.10
2019-05-02T11:54:44.687Z,16.10
2019-05-02T11:57:11.932Z,16.10
2019-05-02T11:59:42.492Z,16.10
2019-05-02T12:02:42.782Z,16.10
2019-05-02T12:05:13.926Z,16.10
2019-05-02T12:07:42.919Z,16.10
2019-05-02T12:10:12.571Z,16.20
2019-05-02T12:12:42.975Z,16.10
2019-05-02T12:15:12.496Z,16.10
2019-05-02T12:17:41.988Z,16.10
2019-05-02T12:20:11.906Z,16.10
2019-05-02T12:22:41.934Z,16.20
2019-05-02T12:25:12.697Z,16.30
2019-05-02T12:27:42.489Z,16.30
2019-05-02T12:30:12.402Z,16.40
2019-05-02T12:32:42.667Z,16.40
2019-05-02T12:35:11.951Z,16.40
2019-05-02T12:37:42.389Z,16.40
2019-05-02T12:40:12.231Z,16.40
2019-05-02T12:42:41.944Z,16.40
2019-05-02T12:45:12.306Z,16.50
2019-05-02T12:47:42.766Z,16.50
2019-05-02T12:50:12.179Z,16.70
2019-05-02T12:52:42.887Z,16.70
2019-05-02T12:55:12.772Z,16.80
2019-05-02T12:57:42.912Z,16.80
2019-05-02T13:00:13.377Z,16.90
2019-05-02T13:02:52.419Z,16.90
2019-05-02T13:05:22.187Z,16.90
2019-05-02T13:07:55.315Z,16.80
2019-05-02T13:10:36.548Z,16.80
2019-05-02T13:13:07.953Z,16.80
2019-05-02T13:15:38.021Z,16.80
2019-05-02T13:18:07.654Z,16.80
2019-05-02T13:20:38.396Z,16.80
2019-05-02T13:23:37.307Z,16.80
2019-05-02T13:26:18.447Z,16.90
2019-05-02T13:28:38.101Z,16.90
2019-05-02T13:31:22.295Z,17.00
2019-05-02T13:33:58.314Z,17.10
2019-05-02T13:36:39.761Z,17.10
2019-05-02T13:39:13.709Z,17.10
2019-05-02T13:41:43.066Z,17.10
2019-05-02T13:44:14.728Z,17.10
2019-05-02T13:46:43.790Z,17.10
2019-05-02T13:49:12.842Z,17.20
2019-05-02T13:51:42.610Z,17.10
2019-05-02T13:54:12.538Z,17.20
2019-05-02T13:56:48.891Z,17.30
2019-05-02T13:59:19.173Z,17.30
2019-05-02T14:01:51.906Z,17.30
2019-05-02T14:04:22.972Z,17.30
2019-05-02T14:06:52.889Z,17.30
2019-05-02T14:09:44.060Z,17.30
2019-05-02T14:12:18.663Z,17.30
2019-05-02T14:14:47.533Z,17.20
2019-05-02T14:17:16.439Z,17.20
2019-05-02T14:19:45.394Z,17.20
2019-05-02T14:22:14.391Z,17.30
2019-05-02T14:24:43.302Z,17.30
2019-05-02T14:27:17.211Z,17.30
2019-05-02T14:29:43.076Z,17.30
2019-05-02T14:32:21.347Z,17.30
2019-05-02T14:35:07.571Z,17.30
2019-05-02T14:37:36.613Z,17.40
2019-05-02T14:40:26.075Z,17.40
2019-05-02T14:42:57.757Z,17.40
2019-05-02T14:45:30.365Z,17.40
2019-05-02T14:47:58.872Z,17.40
2019-05-02T14:50:27.089Z,17.50
2019-05-02T14:52:58.074Z,17.40
2019-05-02T14:55:29.262Z,17.50
2019-05-02T14:58:02.143Z,17.40
2019-05-02T15:00:33.394Z,17.40
2019-05-02T15:03:03.323Z,17.50
2019-05-02T15:05:32.642Z,17.40
2019-05-02T15:08:06.696Z,17.50
2019-05-02T15:10:35.997Z,17.50
2019-05-02T15:13:03.912Z,17.40
2019-05-02T15:15:40.510Z,17.40
2019-05-02T15:18:07.857Z,17.40
2019-05-02T15:20:38.934Z,17.40
2019-05-02T15:23:07.211Z,17.40
2019-05-02T15:25:35.953Z,17.40
2019-05-02T15:28:04.949Z,17.30
2019-05-02T15:30:36.988Z,17.30
2019-05-02T15:33:09.758Z,17.30
2019-05-02T15:35:52.714Z,17.20
2019-05-02T15:38:27.636Z,17.20
2019-05-02T15:40:53.818Z,17.20
2019-05-02T15:43:23.006Z,17.20
2019-05-02T15:45:52.676Z,17.20
2019-05-02T15:48:27.269Z,17.20
2019-05-02T15:50:55.358Z,17.20
2019-05-02T15:53:28.236Z,17.20
2019-05-02T15:55:57.167Z,17.20
2019-05-02T15:58:27.790Z,17.20
2019-05-02T16:01:18.582Z,17.20
2019-05-02T16:03:49.620Z,17.20
2019-05-02T16:06:21.807Z,17.20
2019-05-02T16:08:49.263Z,17.20
2019-05-02T16:11:18.682Z,17.20
2019-05-02T16:13:52.445Z,17.20
2019-05-02T16:16:19.479Z,17.20
2019-05-02T16:18:48.403Z,17.20
2019-05-02T16:21:28.401Z,17.20
2019-05-02T16:24:14.712Z,17.20
2019-05-02T16:26:44.818Z,17.20
2019-05-02T16:29:14.912Z,17.20
2019-05-02T16:31:45.394Z,17.20
2019-05-02T16:34:15.051Z,17.20
2019-05-02T16:36:44.213Z,17.20
2019-05-02T16:39:15.211Z,17.30
2019-05-02T16:41:49.074Z,17.20
2019-05-02T16:44:14.606Z,17.20
2019-05-02T16:46:43.867Z,17.20
2019-05-02T16:49:15.705Z,17.10
2019-05-02T16:51:43.552Z,17.10
2019-05-02T16:54:12.811Z,17.10
2019-05-02T16:56:45.698Z,17.10
2019-05-02T16:59:12.705Z,17.10
2019-05-02T17:01:42.531Z,17.10
2019-05-02T17:04:12.908Z,17.10
2019-05-02T17:06:42.608Z,17.10
2019-05-02T17:09:22.306Z,17.10
2019-05-02T17:11:52.418Z,17.00
2019-05-02T17:14:22.066Z,16.90
2019-05-02T17:16:52.346Z,16.90
2019-05-02T17:19:26.173Z,16.90
2019-05-02T17:21:56.302Z,16.90
2019-05-02T17:24:26.113Z,16.80
2019-05-02T17:26:56.621Z,16.90
2019-05-02T17:29:26.052Z,16.80
2019-05-02T17:31:59.134Z,16.80
2019-05-02T17:34:30.700Z,16.70
2019-05-02T17:36:59.111Z,16.80
2019-05-02T17:39:27.244Z,16.60
2019-05-02T17:41:56.510Z,16.60
2019-05-02T17:44:25.831Z,16.60
2019-05-02T17:46:58.121Z,16.50
2019-05-02T17:49:34.829Z,16.50
2019-05-02T17:52:19.699Z,16.50
2019-05-02T17:54:45.541Z,16.40
2019-05-02T17:57:14.537Z,16.40
2019-05-02T17:59:43.437Z,16.30
2019-05-02T18:02:15.886Z,16.30
2019-05-02T18:04:46.586Z,16.30
2019-05-02T18:07:14.173Z,16.30
2019-05-02T18:09:43.134Z,16.30
2019-05-02T18:12:16.106Z,16.20
2019-05-02T18:14:42.847Z,16.20
2019-05-02T18:17:12.752Z,16.20
2019-05-02T18:19:42.601Z,16.20
2019-05-02T18:22:23.420Z,16.20
2019-05-02T18:24:46.356Z,16.10
2019-05-02T18:27:14.958Z,16.10
2019-05-02T18:29:45.630Z,16.20
2019-05-02T18:32:17.449Z,16.10
2019-05-02T18:34:45.779Z,16.10
2019-05-02T18:37:14.924Z,16.00
2019-05-02T18:39:49.718Z,16.00
2019-05-02T18:42:16.600Z,16.00
2019-05-02T18:44:48.228Z,16.00
2019-05-02T18:47:20.082Z,16.00
2019-05-02T18:49:53.724Z,16.00
2019-05-02T18:52:20.229Z,16.00
2019-05-02T18:54:49.146Z,16.00
2019-05-02T18:57:24.404Z,16.00
2019-05-02T18:59:51.930Z,16.00
2019-05-02T19:02:21.583Z,16.00
2019-05-02T19:04:51.623Z,16.00
2019-05-02T19:07:32.508Z,16.00
2019-05-02T19:09:58.899Z,15.90
2019-05-02T19:12:27.341Z,15.80
2019-05-02T19:14:57.524Z,15.90
2019-05-02T19:17:27.163Z,15.90
2019-05-02T19:19:56.142Z,15.80
2019-05-02T19:22:25.087Z,15.80
2019-05-02T19:24:54.133Z,15.80
2019-05-02T19:27:42.829Z,15.80
2019-05-02T19:30:12.986Z,15.90
2019-05-02T19:32:41.979Z,15.90
2019-05-02T19:35:10.953Z,15.80
2019-05-02T19:37:44.570Z,15.80
2019-05-02T19:40:14.953Z,15.80
2019-05-02T19:42:44.998Z,15.80
2019-05-02T19:45:16.797Z,15.70
2019-05-02T19:47:49.050Z,15.70
2019-05-02T19:50:41.607Z,15.70
2019-05-02T19:53:14.974Z,15.70
2019-05-02T19:55:39.910Z,15.60
2019-05-02T19:58:09.275Z,15.70
2019-05-02T20:00:44.451Z,15.60
2019-05-02T20:03:13.589Z,15.60
2019-05-02T20:05:39.584Z,15.60
2019-05-02T20:08:09.744Z,15.70
2019-05-02T20:10:39.164Z,15.70
2019-05-02T20:13:08.215Z,15.70
2019-05-02T20:15:42.125Z,15.70
2019-05-02T20:18:11.902Z,15.70
2019-05-02T20:20:48.774Z,15.60
2019-05-02T20:23:18.727Z,15.60
2019-05-02T20:25:48.874Z,15.60
2019-05-02T20:28:17.871Z,15.70
2019-05-02T20:30:46.807Z,15.70
2019-05-02T20:33:15.818Z,15.70
2019-05-02T20:35:44.743Z,15.70
2019-05-02T20:38:13.671Z,15.70
2019-05-02T20:40:42.762Z,15.70
2019-05-02T20:43:12.189Z,15.60
2019-05-02T20:45:41.679Z,15.60
2019-05-02T20:48:11.929Z,15.60
2019-05-02T20:50:42.414Z,15.60
2019-05-02T20:53:12.827Z,15.50
2019-05-02T20:55:42.164Z,15.50
2019-05-02T20:58:12.645Z,15.50
2019-05-02T21:00:42.676Z,15.50
2019-05-02T21:03:12.041Z,15.40
2019-05-02T21:05:47.951Z,15.40
2019-05-02T21:08:38.810Z,15.30
2019-05-02T21:11:07.871Z,15.30
2019-05-02T21:13:36.812Z,15.40
2019-05-02T21:16:05.858Z,15.40
2019-05-02T21:18:34.884Z,15.50
2019-05-02T21:21:04.228Z,15.40
2019-05-02T21:23:44.185Z,15.40
2019-05-02T21:26:04.343Z,15.30
2019-05-02T21:28:33.307Z,15.30
2019-05-02T21:31:02.915Z,15.40
2019-05-02T21:33:39.739Z,15.40
2019-05-02T21:36:08.928Z,15.30
2019-05-02T21:38:37.858Z,15.30
2019-05-02T21:41:10.610Z,15.30
2019-05-02T21:43:39.544Z,15.30
2019-05-02T21:46:08.568Z,15.40
2019-05-02T21:48:37.500Z,15.40
2019-05-02T21:51:12.232Z,15.30
2019-05-02T21:53:56.077Z,15.40
2019-05-02T21:56:47.775Z,15.30
2019-05-02T21:59:16.651Z,15.30
2019-05-02T22:01:51.733Z,15.30
2019-05-02T22:04:22.224Z,15.30
2019-05-02T22:06:52.161Z,15.20
2019-05-02T22:09:23.150Z,15.20
2019-05-02T22:11:52.467Z,15.20
2019-05-02T22:14:22.254Z,15.20
2019-05-02T22:16:52.898Z,15.20
2019-05-02T22:19:22.424Z,15.20
2019-05-02T22:21:52.480Z,15.20
2019-05-02T22:24:22.156Z,15.20
2019-05-02T22:26:52.566Z,15.20
2019-05-02T22:29:22.012Z,15.20
2019-05-02T22:31:54.199Z,15.20
2019-05-02T22:34:22.095Z,15.20
2019-05-02T22:36:53.877Z,15.20
2019-05-02T22:39:53.179Z,15.20
2019-05-02T22:42:22.816Z,15.20
2019-05-02T22:44:51.816Z,15.20
2019-05-02T22:47:22.671Z,15.20
2019-05-02T22:49:51.891Z,15.10
2019-05-02T22:52:21.769Z,15.10
2019-05-02T22:54:52.349Z,15.10
2019-05-02T22:57:22.604Z,15.00
2019-05-02T22:59:51.832Z,15.00
2019-05-02T23:02:21.966Z,15.00
2019-05-02T23:04:52.661Z,15.00
2019-05-02T23:07:22.306Z,15.00
2019-05-02T23:09:52.690Z,15.00
2019-05-02T23:12:24.802Z,15.00
2019-05-02T23:14:52.939Z,15.00
2019-05-02T23:17:23.144Z,15.00
2019-05-02T23:19:52.774Z,14.90
2019-05-02T23:22:21.984Z,14.90
2019-05-02T23:25:15.431Z,14.90
2019-05-02T23:28:02.496Z,15.00
2019-05-02T23:30:31.868Z,15.00
2019-05-02T23:33:02.325Z,14.90
2019-05-02T23:35:32.012Z,14.90
2019-05-02T23:38:02.243Z,14.90
2019-05-02T23:40:31.227Z,14.90
2019-05-02T23:43:01.870Z,14.90
2019-05-02T23:45:31.677Z,14.80
2019-05-02T23:48:02.161Z,14.90
2019-05-02T23:50:31.349Z,14.80
2019-05-02T23:53:02.174Z,14.80
2019-05-02T23:55:32.193Z,14.90
2019-05-02T23:58:02.937Z,14.90
